Time;durP1;ratioP1;P1;durP2;ratioP2;P2;SDS_P1;SDS_P2;PMS_P1;PMS_P2;Temp;Humidity;BMP_temperature;BMP_pressure;BME280_temperature;BME280_humidity;BME280_pressure;Samples;Min_cycle;Max_cycle;Signal;HPM_P1;HPM_P2
2022/10/03 00:00:29;;;;;;;13.38;3.65;;;9.80;99.90;;;;;;5074391;28;20046;-27
2022/10/03 00:03:20;;;;;;;15.98;4.90;;;9.80;99.90;;;;;;5073744;28;20048;-27
2022/10/03 00:06:08;;;;;;;12.55;3.53;;;9.70;99.90;;;;;;5073956;28;20036;-27
2022/10/03 00:09:02;;;;;;;12.50;3.65;;;9.70;99.90;;;;;;5074283;28;20089;-27
2022/10/03 00:11:38;;;;;;;10.82;3.78;;;9.70;99.90;;;;;;5074349;28;20036;-27
2022/10/03 00:14:36;;;;;;;10.32;2.78;;;9.60;99.90;;;;;;5074143;28;20044;-27
2022/10/03 00:17:11;;;;;;;10.20;2.92;;;9.60;99.90;;;;;;5069069;28;20052;-27
2022/10/03 00:19:55;;;;;;;6.55;2.67;;;9.60;99.90;;;;;;5073713;28;20340;-27
2022/10/03 00:22:35;;;;;;;;;;;9.60;99.90;;;;;;5074580;28;20530;-27
2022/10/03 00:25:13;;;;;;;17.58;4.05;;;9.60;99.90;;;;;;5074046;28;20393;-27
2022/10/03 00:27:41;;;;;;;7.15;3.20;;;9.50;99.90;;;;;;5073785;28;20044;-27
2022/10/03 00:30:22;;;;;;;14.90;4.15;;;9.50;99.90;;;;;;5074001;28;20497;-27
2022/10/03 00:32:57;;;;;;;16.05;4.32;;;9.50;99.90;;;;;;5075759;28;20039;-27
2022/10/03 00:35:56;;;;;;;11.55;3.35;;;9.40;99.90;;;;;;5077980;28;20050;-27
2022/10/03 00:38:46;;;;;;;11.20;3.88;;;9.40;99.90;;;;;;5078031;28;20050;-27
2022/10/03 00:41:42;;;;;;;12.80;4.10;;;9.40;99.90;;;;;;5077522;28;20040;-27
2022/10/03 00:44:27;;;;;;;9.85;3.90;;;9.40;99.90;;;;;;5077689;28;20055;-27
2022/10/03 00:47:20;;;;;;;12.00;4.05;;;9.30;99.90;;;;;;5077800;28;20032;-27
2022/10/03 00:50:01;;;;;;;15.23;3.50;;;9.30;99.90;;;;;;5061102;28;20524;-27
2022/10/03 00:52:54;;;;;;;9.25;3.08;;;9.40;99.90;;;;;;5077605;28;20506;-27
2022/10/03 00:55:39;;;;;;;9.88;2.97;;;9.40;99.90;;;;;;5077389;28;20066;-27
2022/10/03 00:58:13;;;;;;;8.82;3.10;;;9.30;99.90;;;;;;5077516;28;20070;-27
2022/10/03 01:00:45;;;;;;;12.30;3.15;;;9.40;99.90;;;;;;5077517;28;20041;-27
2022/10/03 01:03:23;;;;;;;15.43;4.03;;;9.30;99.90;;;;;;5060299;28;20044;-27
2022/10/03 01:06:16;;;;;;;17.35;3.67;;;9.30;99.90;;;;;;5077520;28;20044;-27
2022/10/03 01:09:19;;;;;;;9.48;3.20;;;9.30;99.90;;;;;;5077341;28;20036;-27
2022/10/03 01:12:13;;;;;;;12.20;3.30;;;9.30;99.90;;;;;;5076941;28;20048;-27
2022/10/03 01:15:16;;;;;;;6.28;2.70;;;9.30;99.90;;;;;;5077182;28;20481;-27
2022/10/03 01:18:10;;;;;;;9.35;3.17;;;9.30;99.90;;;;;;5076923;28;20040;-27
2022/10/03 01:21:08;;;;;;;15.73;3.85;;;9.20;99.90;;;;;;5060010;28;20127;-27
2022/10/03 01:24:05;;;;;;;9.50;3.42;;;9.10;99.90;;;;;;5076348;28;20058;-27
2022/10/03 01:27:04;;;;;;;8.50;2.53;;;9.10;99.90;;;;;;5076693;28;20082;-27
2022/10/03 01:32:48;;;;;;;10.73;3.75;;;9.10;99.90;;;;;;5095027;28;20101;-27
2022/10/03 01:35:36;;;;;;;11.20;3.08;;;9.10;99.90;;;;;;5059817;28;20078;-27
2022/10/03 01:38:07;;;;;;;11.55;2.92;;;9.00;99.90;;;;;;5059883;28;20054;-27
2022/10/03 01:40:39;;;;;;;12.77;3.03;;;9.00;99.90;;;;;;5076811;28;20039;-27
2022/10/03 01:43:18;;;;;;;10.27;3.10;;;9.00;99.90;;;;;;5075633;28;20046;-27
2022/10/03 01:46:02;;;;;;;11.38;2.75;;;9.00;99.90;;;;;;5076538;28;20481;-27
2022/10/03 01:49:07;;;;;;;10.30;3.00;;;9.10;99.90;;;;;;5076140;28;20043;-27
2022/10/03 01:51:48;;;;;;;7.57;2.28;;;9.10;99.90;;;;;;5061491;28;20094;-28
2022/10/03 01:54:17;;;;;;;7.53;2.85;;;9.00;99.90;;;;;;5076100;28;20075;-27
2022/10/03 01:56:57;;;;;;;12.80;3.00;;;9.00;99.90;;;;;;5076054;28;20042;-27
2022/10/03 01:59:37;;;;;;;17.17;3.30;;;9.00;99.90;;;;;;5075960;28;20044;-27
2022/10/03 02:02:33;;;;;;;11.95;2.88;;;9.00;99.90;;;;;;5075730;28;20147;-27
2022/10/03 02:05:02;;;;;;;14.05;3.30;;;9.00;99.90;;;;;;5058607;28;20098;-28
2022/10/03 02:07:40;;;;;;;17.95;3.40;;;9.00;99.90;;;;;;5075856;28;20044;-27
2022/10/03 02:10:40;;;;;;;13.55;3.10;;;9.00;99.90;;;;;;5076364;28;20046;-27
2022/10/03 02:13:27;;;;;;;9.45;2.85;;;9.00;99.90;;;;;;5076117;28;20044;-28
2022/10/03 02:16:27;;;;;;;14.07;3.38;;;9.00;99.90;;;;;;5070377;28;20123;-27
2022/10/03 02:19:14;;;;;;;6.43;2.30;;;9.00;99.90;;;;;;5062352;28;20541;-27
2022/10/03 02:21:57;;;;;;;13.18;2.55;;;9.00;99.90;;;;;;5075310;28;20512;-27
2022/10/03 02:24:35;;;;;;;11.17;2.87;;;8.90;99.90;;;;;;5058771;28;20086;-27
2022/10/03 02:27:20;;;;;;;9.13;3.00;;;8.90;99.90;;;;;;5075795;28;20274;-27
2022/10/03 02:30:18;;;;;;;9.40;2.80;;;8.90;99.90;;;;;;5075261;28;20040;-27
2022/10/03 02:33:09;;;;;;;8.98;2.45;;;8.90;99.90;;;;;;5016242;28;20672;-26
2022/10/03 02:35:56;;;;;;;8.10;2.47;;;8.90;99.90;;;;;;5069838;28;20036;-26
2022/10/03 02:38:34;;;;;;;9.20;2.85;;;8.90;99.90;;;;;;5065504;28;20501;-27
2022/10/03 02:41:23;;;;;;;8.88;2.88;;;8.90;99.90;;;;;;5065678;28;20045;-27
2022/10/03 02:44:13;;;;;;;10.93;2.85;;;8.90;99.90;;;;;;5072249;28;20055;-26
2022/10/03 02:46:58;;;;;;;8.82;2.60;;;8.90;99.90;;;;;;5054799;28;20090;-27
2022/10/03 02:49:48;;;;;;;11.05;2.63;;;8.80;99.90;;;;;;5055124;28;20489;-27
2022/10/03 02:52:32;;;;;;;10.20;3.70;;;8.80;99.90;;;;;;5057925;28;20039;-27
2022/10/03 02:55:04;;;;;;;;;;;8.80;99.90;;;;;;5065454;28;20055;-27
2022/10/03 02:57:45;;;;;;;9.15;3.08;;;8.90;99.90;;;;;;5071538;28;20263;-27
2022/10/03 03:00:32;;;;;;;12.82;3.17;;;8.90;99.90;;;;;;5068513;28;20285;-26
2022/10/03 03:03:12;;;;;;;9.68;2.80;;;8.90;99.90;;;;;;5073134;28;20044;-26
2022/10/03 03:06:02;;;;;;;13.25;3.17;;;8.90;99.90;;;;;;5072709;28;20036;-27
2022/10/03 03:09:22;;;;;;;12.30;3.25;;;8.90;99.90;;;;;;5054996;28;20371;-27
2022/10/03 03:12:27;;;;;;;8.82;3.00;;;8.90;99.90;;;;;;5032653;28;20044;-26
2022/10/03 03:15:15;;;;;;;12.27;3.28;;;8.90;99.90;;;;;;5058968;28;20481;-27
2022/10/03 03:18:22;;;;;;;9.13;2.90;;;8.90;99.90;;;;;;5057719;28;20051;-27
2022/10/03 03:21:09;;;;;;;8.18;2.90;;;8.90;99.90;;;;;;5061500;28;20130;-27
2022/10/03 03:23:49;;;;;;;14.30;3.05;;;8.90;99.90;;;;;;5056034;28;20086;-27
2022/10/03 03:26:21;;;;;;;10.77;2.78;;;8.90;99.90;;;;;;5074481;28;20059;-27
2022/10/03 03:29:11;;;;;;;10.93;3.30;;;8.90;99.90;;;;;;5070805;28;20397;-27
2022/10/03 03:32:00;;;;;;;12.55;2.97;;;8.90;99.90;;;;;;5054422;28;20040;-27
2022/10/03 03:34:58;;;;;;;9.23;2.70;;;8.90;99.90;;;;;;5070827;28;20036;-26
2022/10/03 03:37:34;;;;;;;9.45;2.95;;;8.80;99.90;;;;;;5054070;28;20041;-27
2022/10/03 03:40:03;;;;;;;12.00;3.10;;;8.80;99.90;;;;;;5054304;28;20040;-26
2022/10/03 03:42:54;;;;;;;10.88;3.40;;;8.80;99.90;;;;;;5058004;28;20559;-27
2022/10/03 03:45:39;;;;;;;9.05;2.65;;;8.80;99.90;;;;;;5063875;28;20534;-25
2022/10/03 03:48:38;;;;;;;11.02;2.78;;;8.70;99.90;;;;;;5069127;28;20582;-25
2022/10/03 03:51:22;;;;;;;13.00;3.28;;;8.70;99.90;;;;;;5071431;28;20036;-25
2022/10/03 03:54:25;;;;;;;8.10;2.33;;;8.70;99.90;;;;;;5067142;28;20040;-27
2022/10/03 03:56:53;;;;;;;19.38;3.13;;;8.70;99.90;;;;;;5041218;28;20052;-27
2022/10/03 03:59:33;;;;;;;10.23;2.78;;;8.60;99.90;;;;;;5073804;28;20039;-25
2022/10/03 04:02:37;;;;;;;8.57;2.30;;;8.60;99.90;;;;;;5070706;28;20077;-25
2022/10/03 04:05:09;;;;;;;7.18;2.25;;;8.60;99.90;;;;;;5069578;28;20121;-25
2022/10/03 04:07:49;;;;;;;11.23;2.85;;;8.50;99.90;;;;;;5059232;28;20125;-25
2022/10/03 04:10:44;;;;;;;6.55;2.47;;;8.50;99.90;;;;;;5054158;28;20040;-25
2022/10/03 04:13:36;;;;;;;5.00;2.33;;;8.50;99.90;;;;;;5068372;28;20044;-28
2022/10/03 04:18:56;;;;;;;6.05;2.00;;;8.50;99.90;;;;;;5060555;28;20486;-27
2022/10/03 04:19:23;;;;;;;9.68;2.53;;;8.40;99.90;;;;;;5091196;28;20048;-25
2022/10/03 04:22:11;;;;;;;10.90;3.58;;;8.40;99.90;;;;;;5059381;28;20043;-25
2022/10/03 04:24:58;;;;;;;10.35;2.83;;;8.40;99.90;;;;;;5073917;28;20093;-25
2022/10/03 04:28:25;;;;;;;5.63;2.50;;;8.40;99.90;;;;;;5054120;28;20123;-25
2022/10/03 04:31:09;;;;;;;13.57;3.20;;;8.30;99.90;;;;;;4970581;28;20532;-25
2022/10/03 04:33:38;;;;;;;9.18;2.50;;;8.30;99.90;;;;;;4971782;28;20038;-25
2022/10/03 04:36:23;;;;;;;9.98;2.55;;;8.30;99.90;;;;;;5037608;28;20044;-27
2022/10/03 04:38:56;;;;;;;;;;;8.30;99.90;;;;;;5073142;28;20082;-25
2022/10/03 04:41:27;;;;;;;6.93;2.30;;;8.20;99.90;;;;;;5063637;28;19920;-25
2022/10/03 04:44:15;;;;;;;9.57;3.08;;;8.20;99.90;;;;;;5059157;28;20374;-27
2022/10/03 04:47:05;;;;;;;8.23;2.33;;;8.20;99.90;;;;;;5058363;28;20055;-27
2022/10/03 04:49:47;;;;;;;5.57;2.72;;;8.20;99.90;;;;;;5051828;28;20458;-27
2022/10/03 04:52:38;;;;;;;9.73;2.45;;;8.20;99.90;;;;;;5074337;28;20039;-27
2022/10/03 04:55:41;;;;;;;12.48;3.05;;;8.20;99.90;;;;;;5068847;28;20035;-27
2022/10/03 04:58:09;;;;;;;9.82;2.40;;;8.20;99.90;;;;;;5066645;28;20040;-28
2022/10/03 05:00:54;;;;;;;12.73;2.90;;;8.20;99.90;;;;;;5063322;28;20040;-28
2022/10/03 05:03:44;;;;;;;8.43;2.97;;;8.20;99.90;;;;;;5070240;28;20036;-28
2022/10/03 05:06:25;;;;;;;7.55;2.72;;;8.20;99.90;;;;;;5060774;28;20050;-29
2022/10/03 05:09:03;;;;;;;12.15;3.35;;;8.20;99.90;;;;;;5061864;28;20067;-28
2022/10/03 05:11:46;;;;;;;11.32;3.95;;;8.20;99.90;;;;;;5056532;28;20036;-28
2022/10/03 05:14:36;;;;;;;6.28;3.00;;;8.20;99.90;;;;;;5039642;28;20040;-28
2022/10/03 05:17:23;;;;;;;7.00;2.70;;;8.20;99.90;;;;;;5062974;28;20032;-28
2022/10/03 05:20:15;;;;;;;10.23;3.40;;;8.10;99.90;;;;;;5086114;28;20486;-28
2022/10/03 05:23:08;;;;;;;9.32;3.30;;;8.10;99.90;;;;;;5063047;28;20033;-28
2022/10/03 05:25:52;;;;;;;10.30;4.13;;;8.10;99.90;;;;;;5059756;28;20489;-28
2022/10/03 05:28:45;;;;;;;9.85;4.60;;;8.10;99.90;;;;;;5061263;28;20100;-28
2022/10/03 05:31:20;;;;;;;14.07;5.22;;;8.00;99.90;;;;;;5057898;28;20037;-28
2022/10/03 05:33:52;;;;;;;14.50;6.10;;;8.10;99.90;;;;;;5063382;28;20111;-30
2022/10/03 05:36:39;;;;;;;16.83;6.88;;;8.00;99.90;;;;;;5063384;28;20112;-28
2022/10/03 05:39:23;;;;;;;22.73;12.32;;;8.10;99.90;;;;;;5069152;28;20036;-28
2022/10/03 05:41:59;;;;;;;21.83;12.30;;;8.10;99.90;;;;;;5059575;28;20457;-28
2022/10/03 05:44:48;;;;;;;15.48;7.90;;;8.10;99.90;;;;;;5060076;28;20059;-29
2022/10/03 05:47:57;;;;;;;19.60;12.30;;;8.10;99.90;;;;;;5059270;28;20396;-28
2022/10/03 05:51:12;;;;;;;17.60;9.38;;;8.10;99.90;;;;;;5056370;28;20051;-28
2022/10/03 05:53:56;;;;;;;23.30;12.73;;;8.10;99.90;;;;;;5017212;28;20033;-28
2022/10/03 05:56:49;;;;;;;14.43;8.63;;;8.10;99.90;;;;;;5027643;28;20043;-28
2022/10/03 05:59:50;;;;;;;10.77;7.43;;;8.10;99.90;;;;;;5062486;28;20063;-28
2022/10/03 06:02:44;;;;;;;9.23;5.20;;;8.10;99.90;;;;;;5075774;28;20401;-28
2022/10/03 06:05:47;;;;;;;10.85;4.40;;;8.10;99.90;;;;;;5055975;28;20054;-28
2022/10/03 06:08:31;;;;;;;10.25;4.72;;;8.20;99.90;;;;;;5049153;28;20075;-29
2022/10/03 06:11:31;;;;;;;5.53;3.95;;;8.20;99.90;;;;;;5075077;28;20040;-29
2022/10/03 06:14:34;;;;;;;11.77;4.90;;;8.30;99.90;;;;;;5041763;28;20147;-28
2022/10/03 06:17:15;;;;;;;12.07;5.85;;;8.30;99.90;;;;;;5049279;28;20125;-28
2022/10/03 06:20:22;;;;;;;8.85;5.13;;;8.30;99.90;;;;;;5065816;28;20048;-28
2022/10/03 06:23:03;;;;;;;7.95;4.40;;;8.30;99.90;;;;;;4984168;28;20050;-28
2022/10/03 06:25:56;;;;;;;9.02;3.97;;;8.40;99.90;;;;;;5073162;28;20028;-28
2022/10/03 06:28:59;;;;;;;6.13;3.83;;;8.40;99.90;;;;;;5061546;28;20044;-28
2022/10/03 06:31:43;;;;;;;6.85;3.08;;;8.40;99.90;;;;;;5078258;28;20104;-28
2022/10/03 06:34:12;;;;;;;;;;;8.40;99.90;;;;;;5068421;28;20044;-28
2022/10/03 06:36:44;;;;;;;9.32;4.38;;;8.50;99.90;;;;;;5077374;28;19916;-28
2022/10/03 06:39:27;;;;;;;9.98;4.38;;;8.50;99.90;;;;;;5080667;28;20093;-28
2022/10/03 06:42:07;;;;;;;9.75;3.97;;;8.50;99.90;;;;;;5073174;28;20186;-28
2022/10/03 06:44:56;;;;;;;6.75;3.50;;;8.60;99.90;;;;;;5052208;28;20048;-28
2022/10/03 06:47:40;;;;;;;12.32;4.35;;;8.60;99.90;;;;;;5077755;28;20124;-28
2022/10/03 06:50:18;;;;;;;7.80;3.55;;;8.60;99.90;;;;;;5061663;28;20462;-28
2022/10/03 06:52:50;;;;;;;10.05;3.92;;;8.70;99.90;;;;;;5082376;28;20117;-29
2022/10/03 06:55:55;;;;;;;5.82;3.30;;;8.70;99.90;;;;;;5063826;28;20036;-29
2022/10/03 06:58:35;;;;;;;7.13;3.30;;;8.80;99.90;;;;;;5066014;28;20090;-29
2022/10/03 07:01:10;;;;;;;9.15;3.85;;;8.90;99.90;;;;;;5065570;28;20436;-29
2022/10/03 07:04:07;;;;;;;10.98;3.83;;;8.90;99.90;;;;;;5068978;28;20036;-29
2022/10/03 07:06:57;;;;;;;9.05;4.13;;;9.00;99.90;;;;;;5068690;28;20446;-29
2022/10/03 07:09:48;;;;;;;10.65;4.53;;;9.00;99.90;;;;;;5061452;28;20128;-29
2022/10/03 07:12:46;;;;;;;12.43;4.28;;;9.20;99.90;;;;;;5061146;28;20418;-29
2022/10/03 07:15:42;;;;;;;8.40;4.10;;;9.30;99.90;;;;;;5064694;28;20046;-29
2022/10/03 07:18:45;;;;;;;8.10;3.80;;;9.30;99.90;;;;;;5069006;28;20497;-29
2022/10/03 07:21:46;;;;;;;14.25;4.82;;;9.40;99.90;;;;;;5088855;28;20040;-29
2022/10/03 07:24:39;;;;;;;14.88;5.40;;;9.50;99.90;;;;;;5051902;28;20062;-29
2022/10/03 07:27:08;;;;;;;11.18;4.38;;;9.60;99.90;;;;;;5066486;28;20115;-29
2022/10/03 07:29:34;;;;;;;9.23;4.18;;;9.70;99.90;;;;;;5061159;28;20032;-29
2022/10/03 07:32:00;;;;;;;14.40;5.25;;;9.90;99.90;;;;;;5072434;28;20566;-29
2022/10/03 07:34:53;;;;;;;9.50;4.20;;;10.00;99.90;;;;;;5076696;28;20044;-28
2022/10/03 07:40:29;;;;;;;6.88;3.53;;;10.30;99.90;;;;;;5077572;28;20047;-28
2022/10/03 07:43:14;;;;;;;7.68;4.00;;;10.60;99.90;;;;;;5076627;28;20132;-27
2022/10/03 07:46:03;;;;;;;10.48;4.13;;;10.90;99.90;;;;;;5078401;28;20038;-28
2022/10/03 07:49:01;;;;;;;9.15;3.75;;;11.30;99.90;;;;;;5080818;28;20060;-36
2022/10/03 07:52:17;;;;;;;10.52;4.07;;;11.60;99.90;;;;;;5041393;28;20105;-28
2022/10/03 07:55:10;;;;;;;13.30;3.28;;;12.10;99.90;;;;;;5037221;28;20471;-34
2022/10/03 07:58:18;;;;;;;4.45;2.33;;;12.40;99.90;;;;;;5079002;28;20069;-27
2022/10/03 08:01:22;;;;;;;7.07;2.47;;;12.80;99.90;;;;;;5044327;28;20051;-28
2022/10/03 08:04:20;;;;;;;8.43;2.15;;;13.60;99.90;;;;;;5079075;28;20044;-28
2022/10/03 08:07:25;;;;;;;5.57;2.08;;;14.30;99.90;;;;;;5096612;28;20509;-28
2022/10/03 08:10:23;;;;;;;8.52;2.10;;;14.90;99.90;;;;;;5077348;28;20071;-29
2022/10/03 08:13:09;;;;;;;8.95;2.78;;;15.50;99.90;;;;;;5094056;28;20521;-29
2022/10/03 08:15:35;;;;;;;7.03;2.08;;;16.00;99.90;;;;;;5076349;28;20032;-28
2022/10/03 08:18:12;;;;;;;5.88;1.80;;;16.30;99.90;;;;;;5075663;28;20096;-28
2022/10/03 08:20:57;;;;;;;5.55;1.90;;;16.50;99.90;;;;;;5076231;28;20404;-29
2022/10/03 08:23:43;;;;;;;5.20;2.17;;;16.90;99.90;;;;;;5078045;28;20124;-29
2022/10/03 08:26:29;;;;;;;5.38;1.48;;;17.10;99.90;;;;;;5073937;28;20040;-28
2022/10/03 08:29:09;;;;;;;7.70;1.67;;;17.40;99.90;;;;;;5073793;28;20040;-29
2022/10/03 08:32:09;;;;;;;6.13;1.73;;;17.50;99.90;;;;;;5075392;28;20091;-29
2022/10/03 08:35:15;;;;;;;8.95;1.75;;;17.70;99.90;;;;;;5094385;28;20044;-29
2022/10/03 08:37:59;;;;;;;8.55;1.70;;;17.90;99.90;;;;;;5076078;28;20079;-29
2022/10/03 08:40:46;;;;;;;7.55;1.73;;;18.10;99.90;;;;;;5075721;28;20105;-35
2022/10/03 08:43:31;;;;;;;4.20;1.45;;;18.40;99.90;;;;;;5074009;28;20489;-29
2022/10/03 08:46:12;;;;;;;4.80;1.33;;;18.60;99.90;;;;;;5074099;28;20047;-29
2022/10/03 08:49:11;;;;;;;8.40;1.48;;;18.80;99.90;;;;;;5074089;28;20036;-29
2022/10/03 08:51:46;;;;;;;6.90;1.52;;;19.10;99.90;;;;;;5023534;28;20048;-29
2022/10/03 08:54:44;;;;;;;4.13;1.35;;;19.40;99.90;;;;;;5076934;28;20040;-29
2022/10/03 08:57:47;;;;;;;6.32;1.75;;;19.60;99.90;;;;;;5061392;28;20119;-29
2022/10/03 09:00:21;;;;;;;5.80;1.40;;;19.90;99.90;;;;;;5077475;28;20079;-29
2022/10/03 09:03:25;;;;;;;7.68;1.50;;;20.00;99.90;;;;;;5095348;28;20055;-29
2022/10/03 09:06:29;;;;;;;8.85;1.60;;;20.00;99.90;;;;;;5077569;28;20071;-29
2022/10/03 09:09:20;;;;;;;6.18;1.65;;;20.00;99.90;;;;;;5077680;28;20549;-29
2022/10/03 09:12:07;;;;;;;5.65;1.25;;;20.10;99.90;;;;;;5077179;28;20040;-29
2022/10/03 09:15:06;;;;;;;3.90;1.25;;;19.80;99.90;;;;;;5078287;28;20405;-29
2022/10/03 09:17:48;;;;;;;6.78;1.20;;;19.80;99.90;;;;;;5079039;28;20040;-29
2022/10/03 09:20:22;;;;;;;4.50;1.30;;;20.10;99.90;;;;;;5078430;28;20085;-30
2022/10/03 09:23:03;;;;;;;6.65;1.38;;;20.40;99.90;;;;;;5078135;28;20117;-30
2022/10/03 09:25:54;;;;;;;5.50;1.38;;;20.60;99.90;;;;;;5078114;28;20040;-30
2022/10/03 09:28:29;;;;;;;6.25;1.30;;;21.00;99.90;;;;;;5078425;28;20494;-30
2022/10/03 09:31:02;;;;;;;6.57;1.65;;;21.10;99.90;;;;;;5077446;28;20036;-27
2022/10/03 09:33:50;;;;;;;9.23;1.73;;;21.20;99.90;;;;;;5077122;28;20036;-29
2022/10/03 09:36:40;;;;;;;5.55;1.48;;;21.20;99.90;;;;;;5077060;28;20051;-30
2022/10/03 09:39:27;;;;;;;7.00;1.70;;;20.90;99.90;;;;;;5060901;28;20039;-30
2022/10/03 09:42:01;;;;;;;4.97;1.45;;;20.40;99.90;;;;;;5077060;28;20120;-30
2022/10/03 09:45:09;;;;;;;6.22;1.58;;;20.60;99.90;;;;;;5077087;28;20034;-29
2022/10/03 09:47:52;;;;;;;6.68;1.55;;;20.40;99.90;;;;;;4977392;28;20126;-30
2022/10/03 09:50:42;;;;;;;6.93;1.35;;;20.60;99.90;;;;;;5068668;28;20043;-30
2022/10/03 09:53:40;;;;;;;4.45;1.30;;;20.70;99.90;;;;;;5060765;28;20044;-30
2022/10/03 09:56:24;;;;;;;4.28;1.40;;;20.80;99.90;;;;;;5076960;28;20439;-29
2022/10/03 09:59:24;;;;;;;4.65;1.17;;;20.70;99.90;;;;;;5095344;28;20044;-29
2022/10/03 10:02:13;;;;;;;4.80;1.23;;;21.00;99.90;;;;;;5077262;28;20051;-29
2022/10/03 10:04:54;;;;;;;5.65;1.50;;;20.60;99.90;;;;;;5076445;28;20061;-29
2022/10/03 10:07:57;;;;;;;4.18;1.45;;;20.30;99.90;;;;;;5077178;28;20092;-29
2022/10/03 10:10:51;;;;;;;4.95;1.48;;;20.50;99.90;;;;;;5073814;28;20499;-32
2022/10/03 10:13:56;;;;;;;7.18;1.48;;;20.50;99.90;;;;;;5057172;28;20067;-31
2022/10/03 10:16:44;;;;;;;4.80;1.63;;;20.40;99.90;;;;;;5068347;28;20104;-32
2022/10/03 10:19:19;;;;;;;5.18;1.55;;;20.80;99.90;;;;;;5067196;28;20060;-32
2022/10/03 10:21:57;;;;;;;7.03;1.33;;;21.00;99.90;;;;;;5070731;28;20047;-32
2022/10/03 10:25:00;;;;;;;3.95;1.20;;;21.20;99.90;;;;;;5068394;28;20180;-31
2022/10/03 10:27:49;;;;;;;5.13;1.42;;;21.20;99.90;;;;;;5074544;28;20180;-32
2022/10/03 10:30:53;;;;;;;7.03;1.65;;;21.20;99.90;;;;;;5072729;28;20032;-31
2022/10/03 10:33:56;;;;;;;7.32;1.38;;;21.20;99.90;;;;;;5074292;28;20123;-32
2022/10/03 10:36:43;;;;;;;6.05;1.55;;;21.10;99.90;;;;;;5071968;28;20048;-31
2022/10/03 10:39:27;;;;;;;5.72;1.25;;;21.30;99.90;;;;;;5067728;28;20041;-32
2022/10/03 10:42:02;;;;;;;4.30;1.20;;;21.60;99.90;;;;;;5065725;28;20089;-31
2022/10/03 10:44:43;;;;;;;3.80;1.33;;;22.00;99.90;;;;;;5080447;28;20028;-31
2022/10/03 10:47:21;;;;;;;5.10;1.00;;;22.10;98.50;;;;;;5060482;28;20099;-31
2022/10/03 10:49:56;;;;;;;4.28;1.30;;;21.80;90.20;;;;;;5065154;28;20028;-31
2022/10/03 10:52:46;;;;;;;5.35;1.33;;;21.60;99.50;;;;;;5062883;28;20047;-29
2022/10/03 10:55:44;;;;;;;5.15;1.30;;;21.40;96.80;;;;;;5057316;28;20040;-30
2022/10/03 10:58:32;;;;;;;6.45;1.45;;;21.20;98.30;;;;;;5080401;28;20124;-31
2022/10/03 11:01:36;;;;;;;4.03;1.00;;;21.60;99.90;;;;;;5069946;28;20553;-30
2022/10/03 11:04:36;;;;;;;4.30;1.05;;;21.80;99.60;;;;;;5057826;28;20058;-30
2022/10/03 11:07:40;;;;;;;5.97;1.17;;;21.90;99.70;;;;;;5057626;28;20082;-30
2022/10/03 11:10:29;;;;;;;5.13;1.30;;;22.10;96.60;;;;;;5055656;28;20457;-30
2022/10/03 11:13:12;;;;;;;4.78;1.27;;;22.20;93.90;;;;;;5059141;28;20051;-31
2022/10/03 11:15:57;;;;;;;6.65;1.30;;;22.40;92.60;;;;;;5060626;28;20281;-29
2022/10/03 11:18:41;;;;;;;3.97;1.13;;;22.20;94.20;;;;;;5060442;28;20043;-29
2022/10/03 11:21:25;;;;;;;4.72;1.10;;;22.40;93.90;;;;;;5058618;28;20041;-29
2022/10/03 11:24:23;;;;;;;2.55;0.90;;;22.60;98.10;;;;;;5058265;28;20048;-29
2022/10/03 11:26:55;;;;;;;5.18;1.30;;;22.50;91.40;;;;;;5052457;28;20045;-29
2022/10/03 11:29:53;;;;;;;4.78;1.17;;;22.20;95.40;;;;;;5057672;28;20041;-29
2022/10/03 11:32:34;;;;;;;4.47;1.38;;;21.90;93.20;;;;;;5053261;28;20481;-30
2022/10/03 11:35:25;;;;;;;2.33;1.10;;;21.50;98.30;;;;;;5060395;28;20398;-29
2022/10/03 11:38:18;;;;;;;4.63;1.15;;;21.60;98.50;;;;;;5070225;28;20047;-29
2022/10/03 11:41:28;;;;;;;2.25;0.93;;;21.30;97.40;;;;;;5084489;28;20409;-29
2022/10/03 11:44:06;;;;;;;5.38;1.20;;;21.00;98.50;;;;;;5043288;28;20123;-29
2022/10/03 11:46:41;;;;;;;4.68;1.50;;;21.20;99.90;;;;;;5084546;28;20077;-30
2022/10/03 11:49:37;;;;;;;3.60;0.95;;;21.50;97.20;;;;;;5067634;28;20441;-30
2022/10/03 11:52:42;;;;;;;4.45;1.20;;;21.50;95.70;;;;;;5056552;28;20449;-30
2022/10/03 11:55:26;;;;;;;4.95;1.80;;;21.60;97.10;;;;;;5074243;28;20127;-30
2022/10/03 11:58:01;;;;;;;4.57;1.30;;;21.50;96.90;;;;;;5065783;28;20409;-30
2022/10/03 12:00:33;;;;;;;4.28;1.05;;;21.50;96.40;;;;;;5068893;28;20036;-30
2022/10/03 12:03:14;;;;;;;2.95;0.95;;;21.40;98.10;;;;;;5065666;28;20040;-30
2022/10/03 12:08:53;;;;;;;5.43;1.33;;;21.00;98.70;;;;;;5092445;28;20067;-30
2022/10/03 12:09:00;;;;;;;3.78;1.30;;;20.90;99.90;;;;;;5091697;28;20044;-30
2022/10/03 12:11:39;;;;;;;5.00;1.30;;;21.10;99.90;;;;;;5059957;28;20458;-30
2022/10/03 12:14:08;;;;;;;4.40;1.45;;;21.50;99.10;;;;;;5066304;28;20036;-30
2022/10/03 12:17:01;;;;;;;4.40;1.15;;;21.90;94.60;;;;;;5072957;28;20036;-30
2022/10/03 12:19:46;;;;;;;3.40;1.00;;;22.40;97.20;;;;;;5066994;28;20040;-30
2022/10/03 12:22:30;;;;;;;3.60;0.88;;;23.00;89.10;;;;;;5072645;28;20040;-30
2022/10/03 12:25:29;;;;;;;4.50;1.02;;;23.40;84.80;;;;;;5064536;28;20033;-30
2022/10/03 12:28:01;;;;;;;5.47;1.23;;;23.60;69.40;;;;;;5069945;28;20039;-30
2022/10/03 12:30:39;;;;;;;5.38;1.30;;;23.10;74.00;;;;;;5076795;28;20035;-30
2022/10/03 12:33:20;;;;;;;4.07;1.40;;;22.30;79.00;;;;;;5071732;28;20547;-30
2022/10/03 12:35:49;;;;;;;4.95;1.38;;;22.00;90.70;;;;;;5076201;28;20047;-30
2022/10/03 12:38:27;;;;;;;4.38;0.90;;;21.70;94.30;;;;;;5066348;28;20487;-30
2022/10/03 12:41:30;;;;;;;2.78;1.30;;;21.30;94.50;;;;;;5061642;28;20044;-30
2022/10/03 12:44:03;;;;;;;5.38;1.10;;;20.90;96.00;;;;;;5060389;28;20045;-30
2022/10/03 12:47:17;;;;;;;4.60;1.30;;;20.50;99.00;;;;;;5066461;28;20045;-29
2022/10/03 12:49:53;;;;;;;4.55;1.10;;;20.20;99.90;;;;;;5032988;28;20041;-29
2022/10/03 12:52:47;;;;;;;3.45;1.00;;;20.30;99.90;;;;;;5059844;28;20036;-29
2022/10/03 12:55:25;;;;;;;7.43;1.38;;;20.90;99.90;;;;;;5072295;28;20116;-30
2022/10/03 12:58:00;;;;;;;3.40;1.17;;;20.80;98.50;;;;;;5057062;28;20037;-30
2022/10/03 13:00:40;;;;;;;4.70;1.52;;;20.60;99.90;;;;;;5059515;28;20024;-30
2022/10/03 13:03:50;;;;;;;6.88;0.98;;;20.30;99.90;;;;;;5079193;28;20378;-30
2022/10/03 13:06:35;;;;;;;4.70;1.42;;;20.00;99.90;;;;;;5060372;28;20059;-30
2022/10/03 13:09:22;;;;;;;5.95;1.20;;;19.80;99.90;;;;;;5065272;28;20412;-30
2022/10/03 13:11:57;;;;;;;4.38;1.40;;;19.70;99.90;;;;;;5066055;28;20496;-30
2022/10/03 13:14:37;;;;;;;3.63;1.27;;;19.60;99.90;;;;;;5071727;28;20044;-30
2022/10/03 13:17:34;;;;;;;4.13;1.50;;;19.50;99.90;;;;;;5072013;28;20044;-30
2022/10/03 13:20:14;;;;;;;5.43;1.20;;;19.60;99.90;;;;;;5073079;28;20161;-30
2022/10/03 13:23:11;;;;;;;6.35;1.00;;;20.20;99.90;;;;;;5074699;28;20044;-30
2022/10/03 13:25:40;;;;;;;5.90;1.15;;;20.50;99.90;;;;;;5057465;28;20074;-29
2022/10/03 13:28:32;;;;;;;3.17;1.40;;;20.80;99.90;;;;;;5070095;28;20593;-29
2022/10/03 13:31:18;;;;;;;4.18;1.20;;;21.10;98.30;;;;;;5059881;28;20044;-29
2022/10/03 13:33:49;;;;;;;7.32;1.35;;;21.50;97.70;;;;;;5066499;28;20028;-30
2022/10/03 13:36:43;;;;;;;4.25;1.70;;;21.70;97.40;;;;;;5066834;28;20048;-29
2022/10/03 13:39:33;;;;;;;5.60;1.10;;;21.80;93.80;;;;;;5056007;28;20040;-29
2022/10/03 13:42:36;;;;;;;4.07;1.15;;;22.20;96.50;;;;;;5045961;28;20098;-29
2022/10/03 13:45:11;;;;;;;6.45;1.90;;;22.40;92.40;;;;;;5021239;28;20055;-29
2022/10/03 13:48:04;;;;;;;3.63;1.02;;;22.80;90.40;;;;;;5070456;28;20428;-29
2022/10/03 13:50:41;;;;;;;3.38;1.00;;;22.60;76.90;;;;;;5061897;28;20068;-29
2022/10/03 13:53:30;;;;;;;5.22;2.03;;;22.80;93.00;;;;;;5064503;28;20124;-29
2022/10/03 13:56:04;;;;;;;4.40;1.10;;;22.70;90.60;;;;;;5067659;28;20082;-29
2022/10/03 13:58:39;;;;;;;5.38;1.33;;;23.00;79.20;;;;;;5060394;28;20040;-29
2022/10/03 14:01:12;;;;;;;4.03;1.50;;;22.60;78.00;;;;;;5066129;28;20044;-30
2022/10/03 14:03:44;;;;;;;;;;;22.00;86.80;;;;;;5065883;28;20044;-29
2022/10/03 14:06:32;;;;;;;4.43;1.40;;;21.50;93.70;;;;;;5064542;28;19923;-29
2022/10/03 14:09:10;;;;;;;4.40;1.23;;;21.40;90.80;;;;;;5084670;28;20028;-31
2022/10/03 14:11:45;;;;;;;2.70;1.08;;;21.50;93.40;;;;;;5090442;28;20498;-30
2022/10/03 14:14:14;;;;;;;3.25;1.08;;;21.70;93.80;;;;;;5065062;28;20040;-30
2022/10/03 14:16:50;;;;;;;4.93;1.55;;;21.80;92.40;;;;;;5074736;28;20032;-30
2022/10/03 14:20:00;;;;;;;4.57;1.17;;;22.10;91.70;;;;;;5069299;28;20075;-30
2022/10/03 14:22:49;;;;;;;3.92;1.20;;;22.30;87.60;;;;;;5070041;28;20134;-30
2022/10/03 14:25:56;;;;;;;5.82;1.73;;;22.10;79.90;;;;;;5068214;28;20028;-30
2022/10/03 14:28:40;;;;;;;5.13;1.20;;;22.20;84.90;;;;;;5067615;28;20426;-30
2022/10/03 14:31:19;;;;;;;4.75;0.85;;;22.20;85.70;;;;;;5059028;28;20148;-30
2022/10/03 14:34:10;;;;;;;4.50;1.17;;;22.40;90.80;;;;;;5069546;28;20032;-30
2022/10/03 14:36:47;;;;;;;2.45;1.05;;;22.70;89.30;;;;;;5068220;28;20539;-30
2022/10/03 14:39:25;;;;;;;3.58;1.02;;;22.70;81.80;;;;;;5070408;28;20071;-30